createdAt,value
2023-08-13T00:00:32.536Z,4.90
2023-08-13T00:02:59.938Z,5.27
2023-08-13T00:05:29.554Z,4.67
2023-08-13T00:07:57.808Z,4.53
2023-08-13T00:10:26.058Z,4.87
2023-08-13T00:12:55.763Z,4.73
2023-08-13T00:15:28.302Z,4.40
2023-08-13T00:17:55.366Z,4.77
2023-08-13T00:20:24.008Z,4.53
2023-08-13T00:22:51.098Z,6.73
2023-08-13T00:25:18.250Z,5.63
2023-08-13T00:27:49.633Z,5.20
2023-08-13T00:30:17.046Z,5.37
2023-08-13T00:32:47.011Z,5.40
2023-08-13T00:35:14.334Z,5.03
2023-08-13T00:37:43.842Z,5.30
2023-08-13T00:40:13.187Z,4.80
2023-08-13T00:42:40.216Z,4.10
2023-08-13T00:45:08.296Z,5.20
2023-08-13T00:47:36.394Z,5.20
2023-08-13T00:50:05.173Z,5.27
2023-08-13T00:52:33.053Z,5.17
2023-08-13T00:55:00.437Z,4.20
2023-08-13T00:57:28.120Z,4.10
2023-08-13T00:59:55.956Z,4.70
2023-08-13T01:02:23.615Z,5.80
2023-08-13T01:04:50.851Z,4.23
2023-08-13T01:07:18.248Z,4.73
2023-08-13T01:09:48.515Z,5.13
2023-08-13T01:12:21.712Z,5.13
2023-08-13T01:15:09.599Z,4.10
2023-08-13T01:17:37.867Z,7.00
2023-08-13T01:20:06.821Z,4.90
2023-08-13T01:22:36.938Z,3.73
2023-08-13T01:25:04.852Z,4.50
2023-08-13T01:27:42.023Z,4.40
2023-08-13T01:30:28.893Z,4.13
2023-08-13T01:33:02.026Z,5.50
2023-08-13T01:35:30.447Z,4.47
2023-08-13T01:37:59.398Z,4.60
2023-08-13T01:40:26.604Z,5.10
2023-08-13T01:42:54.287Z,5.10
2023-08-13T01:45:22.355Z,4.87
2023-08-13T01:47:49.929Z,3.73
2023-08-13T01:50:16.970Z,4.83
2023-08-13T01:52:44.938Z,3.87
2023-08-13T01:55:12.239Z,5.20
2023-08-13T01:57:39.654Z,5.17
2023-08-13T02:00:08.415Z,4.10
2023-08-13T02:02:38.793Z,4.97
2023-08-13T02:05:08.455Z,4.60
2023-08-13T02:07:35.841Z,7.47
2023-08-13T02:10:02.829Z,7.77
2023-08-13T02:12:29.752Z,5.37
2023-08-13T02:14:56.834Z,6.20
2023-08-13T02:17:23.761Z,6.10
2023-08-13T02:19:50.657Z,4.53
2023-08-13T02:22:17.722Z,5.30
2023-08-13T02:24:44.583Z,7.20
2023-08-13T02:27:12.116Z,6.27
2023-08-13T02:29:39.320Z,7.17
2023-08-13T02:32:06.376Z,4.20
2023-08-13T02:34:34.928Z,4.77
2023-08-13T02:37:02.096Z,4.93
2023-08-13T02:39:29.719Z,6.10
2023-08-13T02:41:56.809Z,4.97
2023-08-13T02:44:24.176Z,6.17
2023-08-13T02:46:51.025Z,6.37
2023-08-13T02:49:17.875Z,5.30
2023-08-13T02:51:44.757Z,6.53
2023-08-13T02:54:11.796Z,6.20
2023-08-13T02:56:39.769Z,6.07
2023-08-13T02:59:07.896Z,6.13
2023-08-13T03:01:37.214Z,8.57
2023-08-13T03:04:04.646Z,10.77
2023-08-13T03:06:31.638Z,9.40
2023-08-13T03:08:58.724Z,13.80
2023-08-13T03:11:25.734Z,8.80
2023-08-13T03:13:53.808Z,7.90
2023-08-13T03:16:21.582Z,8.63
2023-08-13T03:18:49.433Z,11.57
2023-08-13T03:21:19.734Z,6.63
2023-08-13T03:23:47.476Z,7.30
2023-08-13T03:26:15.232Z,8.00
2023-08-13T03:28:42.889Z,9.27
2023-08-13T03:31:14.681Z,7.00
2023-08-13T03:33:53.587Z,9.07
2023-08-13T03:36:21.890Z,7.03
2023-08-13T03:38:51.294Z,6.40
2023-08-13T03:41:18.608Z,7.30
2023-08-13T03:43:45.633Z,8.00
2023-08-13T03:46:12.688Z,8.07
2023-08-13T03:48:39.958Z,7.77
2023-08-13T03:51:07.036Z,8.67
2023-08-13T03:53:34.353Z,10.17
2023-08-13T03:56:01.290Z,13.40
2023-08-13T03:58:30.208Z,6.43
2023-08-13T04:00:57.749Z,7.63
2023-08-13T04:03:28.193Z,7.43
2023-08-13T04:05:55.653Z,7.40
2023-08-13T04:08:22.674Z,9.67
2023-08-13T04:10:50.788Z,9.40
2023-08-13T04:13:17.757Z,8.87
2023-08-13T04:15:44.780Z,7.53
2023-08-13T04:18:12.180Z,7.47
2023-08-13T04:20:41.325Z,7.97
2023-08-13T04:23:08.610Z,7.10
2023-08-13T04:25:37.600Z,6.27
2023-08-13T04:28:04.762Z,8.10
2023-08-13T04:30:34.885Z,7.30
2023-08-13T04:33:02.636Z,7.87
2023-08-13T04:35:30.894Z,6.40
2023-08-13T04:37:57.888Z,7.77
2023-08-13T04:40:50.950Z,6.30
2023-08-13T04:43:18.837Z,7.53
2023-08-13T04:45:46.549Z,8.03
2023-08-13T04:48:14.233Z,7.13
2023-08-13T04:50:41.209Z,7.10
2023-08-13T04:53:08.190Z,5.90
2023-08-13T04:55:35.434Z,7.33
2023-08-13T04:58:02.616Z,7.10
2023-08-13T05:00:29.584Z,6.33
2023-08-13T05:02:56.511Z,8.00
2023-08-13T05:05:23.371Z,5.60
2023-08-13T05:07:50.374Z,6.77
2023-08-13T05:38:21.063Z,6.63
2023-08-13T05:40:50.730Z,5.70
2023-08-13T05:43:17.843Z,5.00
2023-08-13T05:45:44.960Z,5.23
2023-08-13T05:48:12.274Z,4.47
2023-08-13T05:50:40.201Z,5.70
2023-08-13T05:53:07.872Z,5.93
2023-08-13T05:55:35.014Z,5.30
2023-08-13T05:58:02.815Z,5.90
2023-08-13T06:00:31.079Z,5.80
2023-08-13T06:02:59.397Z,4.90
2023-08-13T06:05:26.801Z,5.37
2023-08-13T06:07:53.832Z,5.87
2023-08-13T06:10:20.816Z,4.30
2023-08-13T06:12:47.878Z,5.80
2023-08-13T06:15:14.759Z,4.90
2023-08-13T06:17:43.580Z,5.07
2023-08-13T06:20:11.504Z,5.00
2023-08-13T06:22:38.631Z,4.90
2023-08-13T06:25:06.766Z,5.60
2023-08-13T06:27:33.713Z,5.03
2023-08-13T06:32:35.028Z,4.20
2023-08-13T06:35:03.249Z,4.40
2023-08-13T06:37:30.192Z,3.90
2023-08-13T06:39:57.135Z,4.60
2023-08-13T06:42:24.644Z,4.87
2023-08-13T06:44:51.416Z,4.77
2023-08-13T06:47:18.182Z,4.50
2023-08-13T06:49:45.245Z,3.60
2023-08-13T06:52:12.439Z,3.63
2023-08-13T06:54:39.573Z,3.03
2023-08-13T06:57:06.432Z,3.67
2023-08-13T06:59:33.676Z,4.10
2023-08-13T07:02:01.435Z,4.10
2023-08-13T07:04:29.569Z,4.03
2023-08-13T07:06:57.585Z,3.93
2023-08-13T07:09:25.964Z,3.70
2023-08-13T07:11:53.245Z,3.30
2023-08-13T07:14:20.381Z,3.57
2023-08-13T07:16:47.781Z,4.60
2023-08-13T07:19:14.875Z,4.07
2023-08-13T07:21:42.069Z,5.00
2023-08-13T07:24:11.664Z,3.33
2023-08-13T07:26:38.899Z,3.73
2023-08-13T07:29:07.795Z,3.27
2023-08-13T07:31:36.357Z,3.20
2023-08-13T07:34:03.629Z,3.70
2023-08-13T07:36:30.788Z,3.50
2023-08-13T07:39:01.093Z,2.97
2023-08-13T07:41:28.568Z,2.97
2023-08-13T07:43:56.205Z,3.27
2023-08-13T07:46:23.835Z,2.57
2023-08-13T07:48:54.603Z,1.70
2023-08-13T07:51:22.020Z,3.10
2023-08-13T07:53:52.496Z,2.43
2023-08-13T07:56:19.472Z,2.00
2023-08-13T07:58:46.773Z,1.57
2023-08-13T08:01:17.099Z,2.03
2023-08-13T08:03:44.309Z,2.20
2023-08-13T08:06:13.518Z,1.93
2023-08-13T08:08:40.456Z,1.37
2023-08-13T08:11:07.594Z,1.50
2023-08-13T08:13:36.079Z,1.63
2023-08-13T08:16:03.289Z,1.83
2023-08-13T08:18:30.691Z,1.60
2023-08-13T08:20:58.157Z,2.00
2023-08-13T08:23:25.773Z,1.33
2023-08-13T08:25:52.702Z,1.27
2023-08-13T08:28:19.509Z,1.83
2023-08-13T08:30:51.673Z,2.03
2023-08-13T08:33:18.868Z,1.80
2023-08-13T08:35:45.978Z,1.90
2023-08-13T08:38:13.454Z,1.47
2023-08-13T08:40:49.393Z,1.63
2023-08-13T08:43:16.863Z,1.60
2023-08-13T08:45:46.621Z,1.97
2023-08-13T08:48:14.385Z,1.83
2023-08-13T08:50:42.636Z,2.23
2023-08-13T08:53:16.133Z,1.73
2023-08-13T08:55:43.748Z,1.93
2023-08-13T08:58:11.294Z,2.03
2023-08-13T09:00:41.056Z,2.07
2023-08-13T09:03:10.348Z,2.07
2023-08-13T09:05:44.854Z,1.70
2023-08-13T09:08:16.882Z,2.10
2023-08-13T09:10:45.433Z,1.43
2023-08-13T09:13:12.959Z,2.17
2023-08-13T09:15:44.466Z,2.27
2023-08-13T09:18:12.430Z,1.80
2023-08-13T09:20:46.388Z,2.90
2023-08-13T09:23:22.929Z,2.43
2023-08-13T09:25:54.111Z,2.50
2023-08-13T09:28:24.701Z,1.70
2023-08-13T09:30:54.040Z,2.20
2023-08-13T09:33:27.356Z,1.73
2023-08-13T09:35:55.464Z,1.77
2023-08-13T09:38:23.382Z,2.30
2023-08-13T09:40:52.165Z,2.00
2023-08-13T09:43:22.805Z,2.70
2023-08-13T09:45:50.983Z,1.77
2023-08-13T09:48:19.990Z,2.20
2023-08-13T09:50:48.541Z,2.30
2023-08-13T09:53:16.113Z,2.27
2023-08-13T09:58:30.225Z,2.00
2023-08-13T10:00:57.619Z,3.97
2023-08-13T10:03:25.737Z,2.50
2023-08-13T10:05:54.057Z,1.93
2023-08-13T10:08:21.395Z,2.87
2023-08-13T10:10:49.516Z,1.63
2023-08-13T10:13:16.429Z,1.77
2023-08-13T10:15:44.232Z,2.40
2023-08-13T10:18:11.929Z,2.20
2023-08-13T10:20:44.833Z,2.60
2023-08-13T10:23:11.966Z,2.43
2023-08-13T10:25:39.714Z,2.10
2023-08-13T10:28:22.804Z,2.20
2023-08-13T10:30:50.679Z,2.67
2023-08-13T10:33:17.626Z,2.47
2023-08-13T10:35:44.677Z,1.80
2023-08-13T10:38:14.476Z,2.83
2023-08-13T10:41:03.165Z,1.90
2023-08-13T10:43:32.465Z,2.07
2023-08-13T10:46:00.577Z,1.83
2023-08-13T10:48:29.021Z,1.70
2023-08-13T10:50:56.465Z,2.97
2023-08-13T10:53:24.166Z,2.43
2023-08-13T10:55:53.519Z,2.57
2023-08-13T10:58:28.028Z,1.90
2023-08-13T11:01:12.801Z,1.70
2023-08-13T11:03:55.724Z,2.43
2023-08-13T11:06:23.933Z,2.30
2023-08-13T11:08:53.176Z,2.50
2023-08-13T11:11:48.432Z,2.80
2023-08-13T11:14:15.655Z,2.47
2023-08-13T11:16:43.068Z,3.10
2023-08-13T11:19:10.175Z,2.10
2023-08-13T11:21:39.406Z,2.30
2023-08-13T11:24:10.395Z,2.23
2023-08-13T11:26:38.830Z,2.17
2023-08-13T11:29:11.384Z,3.33
2023-08-13T11:31:39.782Z,2.23
2023-08-13T11:34:07.246Z,2.30
2023-08-13T11:36:38.032Z,1.90
2023-08-13T11:39:05.804Z,2.73
2023-08-13T11:41:41.868Z,2.83
2023-08-13T11:44:12.109Z,2.90
2023-08-13T11:47:31.396Z,1.93
2023-08-13T11:50:00.546Z,1.60
2023-08-13T11:52:44.164Z,1.93
2023-08-13T11:55:12.317Z,1.83
2023-08-13T11:57:46.482Z,1.83
2023-08-13T12:00:21.390Z,1.87
2023-08-13T12:03:45.799Z,1.83
2023-08-13T12:06:22.071Z,2.83
2023-08-13T12:22:24.514Z,1.77
2023-08-13T12:24:56.737Z,1.20
2023-08-13T12:27:24.205Z,1.17
2023-08-13T12:29:51.607Z,1.43
2023-08-13T12:32:25.641Z,1.40
2023-08-13T12:35:18.778Z,1.80
2023-08-13T12:37:45.977Z,2.70
2023-08-13T12:40:23.822Z,1.20
2023-08-13T12:43:01.385Z,1.50
2023-08-13T12:46:01.784Z,1.70
2023-08-13T12:52:46.782Z,1.80
2023-08-13T12:55:17.714Z,1.70
2023-08-13T12:57:45.549Z,2.23
2023-08-13T13:00:14.705Z,1.77
2023-08-13T13:02:47.250Z,1.70
2023-08-13T13:05:19.148Z,1.73
2023-08-13T13:07:49.618Z,1.37
2023-08-13T13:10:27.076Z,1.90
2023-08-13T13:12:59.202Z,2.33
2023-08-13T13:15:54.640Z,1.53
2023-08-13T13:18:27.210Z,2.20
2023-08-13T13:21:01.929Z,1.10
2023-08-13T13:23:29.404Z,1.60
2023-08-13T13:26:02.006Z,1.37
2023-08-13T13:28:30.397Z,1.67
2023-08-13T13:31:04.842Z,1.57
2023-08-13T13:33:32.073Z,1.60
2023-08-13T13:35:59.210Z,1.33
2023-08-13T13:38:26.668Z,1.70
2023-08-13T13:40:56.569Z,2.13
2023-08-13T13:43:23.835Z,1.50
2023-08-13T13:45:53.365Z,1.50
2023-08-13T13:48:21.070Z,1.40
2023-08-13T13:50:48.134Z,1.40
2023-08-13T13:53:19.911Z,1.90
2023-08-13T13:55:48.044Z,1.43
2023-08-13T13:58:42.896Z,1.40
2023-08-13T14:01:10.004Z,1.80
2023-08-13T14:03:41.316Z,1.57
2023-08-13T14:06:08.475Z,2.03
2023-08-13T14:08:36.686Z,1.83
2023-08-13T14:11:06.096Z,1.63
2023-08-13T14:13:34.011Z,1.23
2023-08-13T14:17:01.038Z,1.17
2023-08-13T14:19:39.645Z,1.90
2023-08-13T14:22:13.643Z,1.70
2023-08-13T14:24:47.453Z,1.60
2023-08-13T14:27:17.122Z,1.20
2023-08-13T14:29:49.746Z,1.20
2023-08-13T14:32:22.657Z,1.53
2023-08-13T14:34:50.629Z,1.40
2023-08-13T14:37:19.189Z,2.07
2023-08-13T14:39:48.300Z,2.57
2023-08-13T14:42:15.694Z,1.10
2023-08-13T14:45:12.030Z,1.47
2023-08-13T14:47:46.648Z,1.93
2023-08-13T14:53:57.115Z,1.80
2023-08-13T14:56:26.766Z,2.40
2023-08-13T14:58:59.555Z,1.90
2023-08-13T15:01:33.667Z,2.50
2023-08-13T15:04:01.310Z,1.50
2023-08-13T15:06:28.710Z,1.27
2023-08-13T15:08:56.298Z,1.67
2023-08-13T15:11:27.248Z,0.97
2023-08-13T15:14:09.908Z,1.70
2023-08-13T15:19:45.338Z,1.87
2023-08-13T15:22:15.474Z,1.50
2023-08-13T15:25:08.587Z,1.80
2023-08-13T15:28:51.489Z,1.70
2023-08-13T15:31:23.215Z,1.90
2023-08-13T15:33:50.103Z,1.67
2023-08-13T15:36:43.363Z,1.50
2023-08-13T15:39:13.964Z,1.60
2023-08-13T15:42:21.892Z,1.40
2023-08-13T15:48:00.058Z,1.80
2023-08-13T15:50:39.566Z,1.90
2023-08-13T15:54:07.912Z,2.00
2023-08-13T15:56:39.958Z,1.43
2023-08-13T16:02:18.254Z,1.63
2023-08-13T16:05:22.270Z,1.33
2023-08-13T16:11:38.489Z,1.87
2023-08-13T16:17:12.144Z,1.23
2023-08-13T16:19:51.593Z,1.90
2023-08-13T16:22:18.955Z,1.70
2023-08-13T16:24:49.049Z,1.60
2023-08-13T16:27:15.990Z,1.57
2023-08-13T16:29:48.543Z,1.60
2023-08-13T16:32:29.063Z,1.90
2023-08-13T16:35:01.430Z,2.20
2023-08-13T16:37:49.845Z,1.67
2023-08-13T16:40:17.519Z,1.77
2023-08-13T16:43:03.664Z,2.60
2023-08-13T16:45:32.525Z,1.70
2023-08-13T16:48:01.234Z,1.33
2023-08-13T16:50:34.260Z,2.13
2023-08-13T16:53:23.434Z,1.50
2023-08-13T16:55:53.547Z,1.57
2023-08-13T16:58:27.835Z,2.23
2023-08-13T17:01:28.388Z,2.20
2023-08-13T17:04:02.094Z,1.80
2023-08-13T17:07:37.498Z,2.13
2023-08-13T17:10:18.294Z,1.90
2023-08-13T17:13:02.945Z,2.10
2023-08-13T17:15:31.133Z,1.73
2023-08-13T17:18:26.202Z,2.17
2023-08-13T17:21:45.567Z,2.50
2023-08-13T17:24:20.323Z,2.83
2023-08-13T17:26:48.483Z,2.30
2023-08-13T17:29:32.998Z,1.90
2023-08-13T17:32:07.406Z,1.80
2023-08-13T17:38:10.821Z,3.50
2023-08-13T17:40:38.043Z,2.40
2023-08-13T17:43:09.126Z,2.30
2023-08-13T17:45:42.856Z,2.10
2023-08-13T17:48:10.267Z,3.73
2023-08-13T17:50:37.408Z,2.57
2023-08-13T17:53:14.631Z,2.03
2023-08-13T17:55:47.121Z,1.90
2023-08-13T18:01:05.155Z,2.50
2023-08-13T18:03:34.774Z,1.87
2023-08-13T18:06:05.721Z,2.40
2023-08-13T18:08:36.220Z,2.17
2023-08-13T18:11:03.479Z,2.23
2023-08-13T18:13:36.383Z,2.17
2023-08-13T18:16:03.531Z,2.30
2023-08-13T18:18:30.535Z,4.13
2023-08-13T18:20:58.544Z,2.60
2023-08-13T18:23:25.658Z,2.63
2023-08-13T18:25:53.150Z,2.10
2023-08-13T18:28:20.387Z,2.10
2023-08-13T18:30:49.828Z,2.00
2023-08-13T18:33:16.833Z,3.40
2023-08-13T18:35:47.213Z,2.53
2023-08-13T18:38:15.232Z,1.67
2023-08-13T18:40:42.314Z,3.43
2023-08-13T18:43:09.244Z,2.03
2023-08-13T18:45:36.808Z,3.20
2023-08-13T18:48:04.345Z,2.23
2023-08-13T18:50:31.562Z,3.80
2023-08-13T18:56:09.051Z,3.17
2023-08-13T18:58:36.036Z,2.33
2023-08-13T19:04:56.827Z,2.63
2023-08-13T19:07:25.230Z,2.90
2023-08-13T19:09:52.475Z,3.30
2023-08-13T19:12:19.614Z,2.50
2023-08-13T19:14:48.113Z,2.63
2023-08-13T19:17:16.568Z,2.77
2023-08-13T19:19:43.825Z,3.17
2023-08-13T19:22:10.760Z,2.10
2023-08-13T19:24:56.630Z,2.70
2023-08-13T19:27:24.573Z,2.47
2023-08-13T19:29:52.327Z,2.33
2023-08-13T19:35:28.720Z,3.63
2023-08-13T19:37:56.143Z,3.00
2023-08-13T19:40:23.840Z,2.80
2023-08-13T19:42:51.135Z,1.93
2023-08-13T19:45:19.070Z,1.97
2023-08-13T19:47:46.326Z,1.93
2023-08-13T19:50:19.604Z,3.50
2023-08-13T19:52:47.287Z,2.50
2023-08-13T19:55:15.845Z,2.73
2023-08-13T19:57:43.114Z,2.50
2023-08-13T20:00:11.318Z,2.80
2023-08-13T20:02:40.031Z,2.30
2023-08-13T20:05:07.825Z,2.33
2023-08-13T20:07:35.806Z,2.37
2023-08-13T20:10:10.960Z,2.63
2023-08-13T20:12:38.308Z,2.43
2023-08-13T20:15:06.894Z,2.07
2023-08-13T20:17:40.692Z,3.13
2023-08-13T20:40:45.061Z,2.17
2023-08-13T20:43:33.966Z,3.13
2023-08-13T20:46:05.762Z,2.37
2023-08-13T20:51:16.841Z,2.80
2023-08-13T20:53:47.881Z,3.20
2023-08-13T20:56:17.560Z,2.57
2023-08-13T20:58:48.878Z,3.07
2023-08-13T21:04:41.159Z,2.77
2023-08-13T21:07:24.959Z,3.63
2023-08-13T21:09:51.903Z,2.70
2023-08-13T21:12:19.121Z,2.37
2023-08-13T21:14:46.290Z,2.97
2023-08-13T21:17:13.187Z,2.60
2023-08-13T21:19:40.931Z,2.67
2023-08-13T21:22:08.185Z,2.50
2023-08-13T21:24:35.071Z,2.53
2023-08-13T21:27:02.473Z,3.33
2023-08-13T21:29:29.452Z,3.00
2023-08-13T21:31:57.325Z,2.60
2023-08-13T21:34:24.212Z,2.70
2023-08-13T21:36:51.231Z,3.23
2023-08-13T21:39:18.243Z,2.90
2023-08-13T21:41:45.304Z,2.37
2023-08-13T21:44:12.707Z,2.63
2023-08-13T21:46:40.041Z,2.73
2023-08-13T21:49:07.314Z,3.37
2023-08-13T21:51:34.593Z,2.40
2023-08-13T21:54:01.923Z,4.10
2023-08-13T21:56:28.781Z,3.33
2023-08-13T21:58:55.896Z,2.97
2023-08-13T22:01:23.396Z,3.07
2023-08-13T22:03:51.014Z,2.87
2023-08-13T22:06:17.973Z,3.00
2023-08-13T22:08:44.801Z,2.80
2023-08-13T22:11:11.608Z,2.97
2023-08-13T22:13:38.534Z,2.60
2023-08-13T22:16:05.658Z,2.37
2023-08-13T22:18:32.466Z,2.87
2023-08-13T22:20:59.271Z,2.30
2023-08-13T22:23:26.076Z,2.70
2023-08-13T22:25:55.157Z,3.20
2023-08-13T22:28:26.285Z,3.30
2023-08-13T22:30:55.562Z,2.60
2023-08-13T22:33:35.347Z,4.10
2023-08-13T22:36:04.514Z,3.67
2023-08-13T22:38:33.978Z,3.23
2023-08-13T22:41:01.770Z,2.43
2023-08-13T22:43:29.020Z,2.73
2023-08-13T22:45:56.022Z,2.90
2023-08-13T22:48:22.952Z,2.93
2023-08-13T22:50:51.614Z,3.20
2023-08-13T22:53:19.872Z,3.27
2023-08-13T22:55:46.675Z,3.00
2023-08-13T22:58:14.377Z,3.13
2023-08-13T23:00:41.571Z,3.27
2023-08-13T23:03:08.694Z,3.17
2023-08-13T23:05:36.016Z,3.43
2023-08-13T23:08:11.340Z,3.57
2023-08-13T23:10:38.113Z,3.97
2023-08-13T23:13:05.097Z,3.70
2023-08-13T23:15:31.916Z,3.03
2023-08-13T23:17:59.230Z,4.13
2023-08-13T23:20:26.794Z,3.63
2023-08-13T23:22:55.455Z,3.03
2023-08-13T23:25:22.418Z,3.43
2023-08-13T23:27:49.240Z,4.33
2023-08-13T23:30:17.637Z,3.60
2023-08-13T23:32:44.784Z,4.50
2023-08-13T23:35:11.806Z,4.00
2023-08-13T23:37:38.653Z,4.47
2023-08-13T23:40:07.122Z,3.43
2023-08-13T23:42:34.175Z,3.83
2023-08-13T23:45:01.098Z,3.60
2023-08-13T23:47:28.123Z,5.63
2023-08-13T23:49:54.989Z,4.40
2023-08-13T23:52:21.807Z,5.53
2023-08-13T23:54:48.836Z,3.70
2023-08-13T23:57:15.961Z,3.83
2023-08-13T23:59:42.801Z,5.27
